sensor_id;sensor_type;location;lat;lon;timestamp;P1;durP1;ratioP1;P2;durP2;ratioP2
12774;SDS011;6451;42.630;23.382;2024-02-26T00:01:36;8.50;;;7.07;;
12774;SDS011;6451;42.630;23.382;2024-02-26T00:04:04;10.87;;;7.93;;
12774;SDS011;6451;42.630;23.382;2024-02-26T00:06:32;8.67;;;7.77;;
12774;SDS011;6451;42.630;23.382;2024-02-26T00:09:01;11.17;;;8.17;;
12774;SDS011;6451;42.630;23.382;2024-02-26T00:11:31;10.17;;;7.67;;
12774;SDS011;6451;42.630;23.382;2024-02-26T00:13:58;10.60;;;7.90;;
12774;SDS011;6451;42.630;23.382;2024-02-26T00:16:25;10.57;;;7.80;;
12774;SDS011;6451;42.630;23.382;2024-02-26T00:18:54;9.13;;;7.63;;
12774;SDS011;6451;42.630;23.382;2024-02-26T00:21:21;11.27;;;8.53;;
12774;SDS011;6451;42.630;23.382;2024-02-26T00:23:50;11.67;;;8.87;;
12774;SDS011;6451;42.630;23.382;2024-02-26T00:26:20;12.67;;;8.73;;
12774;SDS011;6451;42.630;23.382;2024-02-26T00:28:49;13.30;;;9.77;;
12774;SDS011;6451;42.630;23.382;2024-02-26T00:34:03;12.00;;;9.07;;
12774;SDS011;6451;42.630;23.382;2024-02-26T00:36:30;10.00;;;8.70;;
12774;SDS011;6451;42.630;23.382;2024-02-26T00:39:01;11.43;;;8.43;;
12774;SDS011;6451;42.630;23.382;2024-02-26T00:41:28;10.17;;;8.63;;
12774;SDS011;6451;42.630;23.382;2024-02-26T00:43:55;12.10;;;9.50;;
12774;SDS011;6451;42.630;23.382;2024-02-26T00:46:22;11.07;;;9.00;;
12774;SDS011;6451;42.630;23.382;2024-02-26T00:48:49;12.43;;;9.17;;
12774;SDS011;6451;42.630;23.382;2024-02-26T00:51:17;12.97;;;9.03;;
12774;SDS011;6451;42.630;23.382;2024-02-26T00:53:44;16.83;;;9.23;;
12774;SDS011;6451;42.630;23.382;2024-02-26T00:56:15;13.40;;;9.50;;
12774;SDS011;6451;42.630;23.382;2024-02-26T00:58:42;12.10;;;8.70;;
12774;SDS011;6451;42.630;23.382;2024-02-26T01:01:09;11.27;;;8.30;;
12774;SDS011;6451;42.630;23.382;2024-02-26T01:03:36;11.60;;;8.33;;
12774;SDS011;6451;42.630;23.382;2024-02-26T01:06:03;11.70;;;9.00;;
12774;SDS011;6451;42.630;23.382;2024-02-26T01:08:31;12.07;;;8.60;;
12774;SDS011;6451;42.630;23.382;2024-02-26T01:11:00;11.83;;;8.67;;
12774;SDS011;6451;42.630;23.382;2024-02-26T01:13:29;12.80;;;8.90;;
12774;SDS011;6451;42.630;23.382;2024-02-26T01:15:56;11.60;;;9.37;;
12774;SDS011;6451;42.630;23.382;2024-02-26T01:18:23;11.17;;;8.80;;
12774;SDS011;6451;42.630;23.382;2024-02-26T01:20:50;11.70;;;9.03;;
12774;SDS011;6451;42.630;23.382;2024-02-26T01:23:19;14.67;;;9.60;;
12774;SDS011;6451;42.630;23.382;2024-02-26T01:25:48;14.07;;;9.57;;
12774;SDS011;6451;42.630;23.382;2024-02-26T01:28:14;11.93;;;10.57;;
12774;SDS011;6451;42.630;23.382;2024-02-26T01:30:44;11.13;;;9.47;;
12774;SDS011;6451;42.630;23.382;2024-02-26T01:33:12;11.67;;;9.67;;
12774;SDS011;6451;42.630;23.382;2024-02-26T01:35:40;10.83;;;9.20;;
12774;SDS011;6451;42.630;23.382;2024-02-26T01:38:07;11.33;;;9.80;;
12774;SDS011;6451;42.630;23.382;2024-02-26T01:40:36;13.80;;;9.43;;
12774;SDS011;6451;42.630;23.382;2024-02-26T01:43:03;12.97;;;9.53;;
12774;SDS011;6451;42.630;23.382;2024-02-26T01:45:30;11.50;;;8.80;;
12774;SDS011;6451;42.630;23.382;2024-02-26T01:47:59;11.00;;;9.33;;
12774;SDS011;6451;42.630;23.382;2024-02-26T01:50:26;12.00;;;9.40;;
12774;SDS011;6451;42.630;23.382;2024-02-26T01:52:55;10.93;;;9.27;;
12774;SDS011;6451;42.630;23.382;2024-02-26T01:55:23;12.77;;;9.17;;
12774;SDS011;6451;42.630;23.382;2024-02-26T01:57:52;12.27;;;9.60;;
12774;SDS011;6451;42.630;23.382;2024-02-26T02:00:20;12.87;;;9.93;;
12774;SDS011;6451;42.630;23.382;2024-02-26T02:02:48;11.33;;;9.10;;
12774;SDS011;6451;42.630;23.382;2024-02-26T02:05:19;13.17;;;9.90;;
12774;SDS011;6451;42.630;23.382;2024-02-26T02:07:47;11.90;;;9.37;;
12774;SDS011;6451;42.630;23.382;2024-02-26T02:10:15;13.83;;;9.60;;
12774;SDS011;6451;42.630;23.382;2024-02-26T02:12:43;12.47;;;9.47;;
12774;SDS011;6451;42.630;23.382;2024-02-26T02:15:10;11.57;;;9.27;;
12774;SDS011;6451;42.630;23.382;2024-02-26T02:17:37;12.03;;;9.43;;
12774;SDS011;6451;42.630;23.382;2024-02-26T02:20:06;11.53;;;9.90;;
12774;SDS011;6451;42.630;23.382;2024-02-26T02:22:37;10.93;;;9.73;;
12774;SDS011;6451;42.630;23.382;2024-02-26T02:25:04;13.10;;;9.77;;
12774;SDS011;6451;42.630;23.382;2024-02-26T02:27:32;13.40;;;10.57;;
12774;SDS011;6451;42.630;23.382;2024-02-26T02:30:00;13.60;;;10.37;;
12774;SDS011;6451;42.630;23.382;2024-02-26T02:32:27;12.83;;;10.73;;
12774;SDS011;6451;42.630;23.382;2024-02-26T02:34:55;14.03;;;10.20;;
12774;SDS011;6451;42.630;23.382;2024-02-26T02:37:24;12.80;;;10.30;;
12774;SDS011;6451;42.630;23.382;2024-02-26T02:39:57;13.30;;;9.73;;
12774;SDS011;6451;42.630;23.382;2024-02-26T02:42:24;12.90;;;9.90;;
12774;SDS011;6451;42.630;23.382;2024-02-26T02:44:51;14.63;;;10.80;;
12774;SDS011;6451;42.630;23.382;2024-02-26T02:47:20;13.13;;;10.50;;
12774;SDS011;6451;42.630;23.382;2024-02-26T02:49:47;12.83;;;10.57;;
12774;SDS011;6451;42.630;23.382;2024-02-26T02:52:14;11.80;;;10.03;;
12774;SDS011;6451;42.630;23.382;2024-02-26T02:54:42;14.20;;;10.80;;
12774;SDS011;6451;42.630;23.382;2024-02-26T02:57:18;11.87;;;9.60;;
12774;SDS011;6451;42.630;23.382;2024-02-26T02:59:49;12.07;;;9.73;;
12774;SDS011;6451;42.630;23.382;2024-02-26T03:02:17;14.43;;;10.37;;
12774;SDS011;6451;42.630;23.382;2024-02-26T03:04:44;13.13;;;10.10;;
12774;SDS011;6451;42.630;23.382;2024-02-26T03:07:12;13.93;;;10.17;;
12774;SDS011;6451;42.630;23.382;2024-02-26T03:09:39;14.13;;;10.80;;
12774;SDS011;6451;42.630;23.382;2024-02-26T03:12:07;13.67;;;10.63;;
12774;SDS011;6451;42.630;23.382;2024-02-26T03:14:36;13.80;;;10.97;;
12774;SDS011;6451;42.630;23.382;2024-02-26T03:17:03;14.67;;;9.73;;
12774;SDS011;6451;42.630;23.382;2024-02-26T03:19:34;11.60;;;9.87;;
12774;SDS011;6451;42.630;23.382;2024-02-26T03:22:01;14.10;;;10.37;;
12774;SDS011;6451;42.630;23.382;2024-02-26T03:24:28;11.57;;;10.30;;
12774;SDS011;6451;42.630;23.382;2024-02-26T03:26:56;13.43;;;10.07;;
12774;SDS011;6451;42.630;23.382;2024-02-26T03:29:23;13.10;;;9.93;;
12774;SDS011;6451;42.630;23.382;2024-02-26T03:31:52;12.17;;;9.80;;
12774;SDS011;6451;42.630;23.382;2024-02-26T03:34:19;12.37;;;10.30;;
12774;SDS011;6451;42.630;23.382;2024-02-26T03:36:47;12.57;;;10.03;;
12774;SDS011;6451;42.630;23.382;2024-02-26T03:39:17;12.27;;;9.70;;
12774;SDS011;6451;42.630;23.382;2024-02-26T03:41:44;12.50;;;10.20;;
12774;SDS011;6451;42.630;23.382;2024-02-26T03:44:10;16.73;;;10.43;;
12774;SDS011;6451;42.630;23.382;2024-02-26T03:46:39;12.20;;;10.17;;
12774;SDS011;6451;42.630;23.382;2024-02-26T03:49:12;12.23;;;10.00;;
12774;SDS011;6451;42.630;23.382;2024-02-26T03:51:40;15.03;;;10.20;;
12774;SDS011;6451;42.630;23.382;2024-02-26T03:54:07;14.07;;;10.17;;
12774;SDS011;6451;42.630;23.382;2024-02-26T03:56:35;13.93;;;9.97;;
12774;SDS011;6451;42.630;23.382;2024-02-26T03:59:02;10.93;;;9.57;;
12774;SDS011;6451;42.630;23.382;2024-02-26T04:01:31;11.87;;;10.40;;
12774;SDS011;6451;42.630;23.382;2024-02-26T04:03:59;13.20;;;10.07;;
12774;SDS011;6451;42.630;23.382;2024-02-26T04:06:30;13.33;;;9.80;;
12774;SDS011;6451;42.630;23.382;2024-02-26T04:08:58;13.47;;;9.57;;
12774;SDS011;6451;42.630;23.382;2024-02-26T04:11:26;10.33;;;9.03;;
12774;SDS011;6451;42.630;23.382;2024-02-26T04:13:54;16.00;;;9.07;;
12774;SDS011;6451;42.630;23.382;2024-02-26T04:16:22;10.90;;;9.23;;
12774;SDS011;6451;42.630;23.382;2024-02-26T04:18:49;12.37;;;9.20;;
12774;SDS011;6451;42.630;23.382;2024-02-26T04:21:16;12.20;;;9.10;;
12774;SDS011;6451;42.630;23.382;2024-02-26T04:23:44;11.27;;;8.93;;
12774;SDS011;6451;42.630;23.382;2024-02-26T04:26:11;11.20;;;9.23;;
12774;SDS011;6451;42.630;23.382;2024-02-26T04:28:38;12.00;;;9.53;;
12774;SDS011;6451;42.630;23.382;2024-02-26T04:31:05;9.97;;;8.73;;
12774;SDS011;6451;42.630;23.382;2024-02-26T04:33:34;13.33;;;9.27;;
12774;SDS011;6451;42.630;23.382;2024-02-26T04:36:01;14.50;;;9.57;;
12774;SDS011;6451;42.630;23.382;2024-02-26T04:38:29;12.13;;;9.60;;
12774;SDS011;6451;42.630;23.382;2024-02-26T04:40:57;12.50;;;9.50;;
12774;SDS011;6451;42.630;23.382;2024-02-26T04:43:25;10.67;;;9.60;;
12774;SDS011;6451;42.630;23.382;2024-02-26T04:45:53;11.67;;;9.90;;
12774;SDS011;6451;42.630;23.382;2024-02-26T04:48:22;14.63;;;9.60;;
12774;SDS011;6451;42.630;23.382;2024-02-26T04:50:49;12.03;;;9.90;;
12774;SDS011;6451;42.630;23.382;2024-02-26T04:53:18;12.43;;;10.13;;
12774;SDS011;6451;42.630;23.382;2024-02-26T04:55:46;13.07;;;10.33;;
12774;SDS011;6451;42.630;23.382;2024-02-26T04:58:16;13.13;;;10.60;;
12774;SDS011;6451;42.630;23.382;2024-02-26T05:00:42;14.03;;;10.73;;
12774;SDS011;6451;42.630;23.382;2024-02-26T05:03:10;13.33;;;10.93;;
12774;SDS011;6451;42.630;23.382;2024-02-26T05:05:40;14.27;;;12.03;;
12774;SDS011;6451;42.630;23.382;2024-02-26T05:08:08;16.00;;;12.37;;
12774;SDS011;6451;42.630;23.382;2024-02-26T05:10:36;17.63;;;14.03;;
12774;SDS011;6451;42.630;23.382;2024-02-26T05:13:05;19.40;;;14.70;;
12774;SDS011;6451;42.630;23.382;2024-02-26T05:15:35;18.60;;;15.50;;
12774;SDS011;6451;42.630;23.382;2024-02-26T05:18:01;20.57;;;16.53;;
12774;SDS011;6451;42.630;23.382;2024-02-26T05:20:28;19.40;;;15.87;;
12774;SDS011;6451;42.630;23.382;2024-02-26T05:23:09;21.47;;;15.70;;
12774;SDS011;6451;42.630;23.382;2024-02-26T05:25:36;24.47;;;16.33;;
12774;SDS011;6451;42.630;23.382;2024-02-26T05:28:07;19.60;;;14.77;;
12774;SDS011;6451;42.630;23.382;2024-02-26T05:30:37;19.63;;;14.90;;
12774;SDS011;6451;42.630;23.382;2024-02-26T05:33:05;18.47;;;14.27;;
12774;SDS011;6451;42.630;23.382;2024-02-26T05:35:40;17.23;;;13.60;;
12774;SDS011;6451;42.630;23.382;2024-02-26T05:38:08;18.27;;;14.57;;
12774;SDS011;6451;42.630;23.382;2024-02-26T05:40:35;21.73;;;17.63;;
12774;SDS011;6451;42.630;23.382;2024-02-26T05:43:04;25.90;;;17.53;;
12774;SDS011;6451;42.630;23.382;2024-02-26T05:45:31;22.10;;;17.57;;
12774;SDS011;6451;42.630;23.382;2024-02-26T05:48:01;26.30;;;18.37;;
12774;SDS011;6451;42.630;23.382;2024-02-26T05:50:28;19.07;;;16.90;;
12774;SDS011;6451;42.630;23.382;2024-02-26T05:52:55;20.20;;;16.07;;
12774;SDS011;6451;42.630;23.382;2024-02-26T05:55:22;19.20;;;15.10;;
12774;SDS011;6451;42.630;23.382;2024-02-26T05:57:50;14.93;;;13.10;;
12774;SDS011;6451;42.630;23.382;2024-02-26T06:00:23;13.70;;;12.10;;
12774;SDS011;6451;42.630;23.382;2024-02-26T06:02:56;15.20;;;11.97;;
12774;SDS011;6451;42.630;23.382;2024-02-26T06:05:25;14.93;;;12.27;;
12774;SDS011;6451;42.630;23.382;2024-02-26T06:07:53;14.83;;;11.50;;
12774;SDS011;6451;42.630;23.382;2024-02-26T06:10:21;15.30;;;11.30;;
12774;SDS011;6451;42.630;23.382;2024-02-26T06:12:51;15.23;;;11.67;;
12774;SDS011;6451;42.630;23.382;2024-02-26T06:15:18;14.37;;;10.77;;
12774;SDS011;6451;42.630;23.382;2024-02-26T06:17:57;13.63;;;11.10;;
12774;SDS011;6451;42.630;23.382;2024-02-26T06:20:26;12.70;;;11.07;;
12774;SDS011;6451;42.630;23.382;2024-02-26T06:22:55;15.67;;;11.20;;
12774;SDS011;6451;42.630;23.382;2024-02-26T06:25:22;14.43;;;11.53;;
12774;SDS011;6451;42.630;23.382;2024-02-26T06:27:52;14.53;;;11.13;;
12774;SDS011;6451;42.630;23.382;2024-02-26T06:30:22;13.63;;;11.33;;
12774;SDS011;6451;42.630;23.382;2024-02-26T06:32:50;15.73;;;11.00;;
12774;SDS011;6451;42.630;23.382;2024-02-26T06:35:19;12.50;;;10.93;;
12774;SDS011;6451;42.630;23.382;2024-02-26T06:37:51;13.27;;;10.83;;
12774;SDS011;6451;42.630;23.382;2024-02-26T06:40:18;13.03;;;11.57;;
12774;SDS011;6451;42.630;23.382;2024-02-26T06:42:48;14.40;;;11.60;;
12774;SDS011;6451;42.630;23.382;2024-02-26T06:45:15;13.40;;;11.17;;
12774;SDS011;6451;42.630;23.382;2024-02-26T06:47:43;14.33;;;11.10;;
12774;SDS011;6451;42.630;23.382;2024-02-26T06:50:11;12.30;;;10.87;;
12774;SDS011;6451;42.630;23.382;2024-02-26T06:52:40;13.43;;;11.10;;
12774;SDS011;6451;42.630;23.382;2024-02-26T06:55:11;12.17;;;10.87;;
12774;SDS011;6451;42.630;23.382;2024-02-26T06:57:40;14.17;;;11.23;;
12774;SDS011;6451;42.630;23.382;2024-02-26T07:00:08;16.67;;;10.60;;
12774;SDS011;6451;42.630;23.382;2024-02-26T07:02:40;14.60;;;10.30;;
12774;SDS011;6451;42.630;23.382;2024-02-26T07:05:09;15.73;;;10.20;;
12774;SDS011;6451;42.630;23.382;2024-02-26T07:07:37;13.03;;;10.10;;
12774;SDS011;6451;42.630;23.382;2024-02-26T07:10:04;15.70;;;10.30;;
12774;SDS011;6451;42.630;23.382;2024-02-26T07:12:34;14.17;;;9.70;;
12774;SDS011;6451;42.630;23.382;2024-02-26T07:15:01;12.83;;;9.77;;
12774;SDS011;6451;42.630;23.382;2024-02-26T07:17:29;13.77;;;9.40;;
12774;SDS011;6451;42.630;23.382;2024-02-26T07:19:59;10.47;;;8.67;;
12774;SDS011;6451;42.630;23.382;2024-02-26T07:22:28;11.10;;;8.67;;
12774;SDS011;6451;42.630;23.382;2024-02-26T07:24:56;11.33;;;9.37;;
12774;SDS011;6451;42.630;23.382;2024-02-26T07:27:23;11.33;;;9.60;;
12774;SDS011;6451;42.630;23.382;2024-02-26T07:29:54;11.10;;;8.90;;
12774;SDS011;6451;42.630;23.382;2024-02-26T07:32:23;12.30;;;9.60;;
12774;SDS011;6451;42.630;23.382;2024-02-26T07:34:50;13.43;;;9.30;;
12774;SDS011;6451;42.630;23.382;2024-02-26T07:37:17;11.00;;;9.30;;
12774;SDS011;6451;42.630;23.382;2024-02-26T07:39:47;10.93;;;9.20;;
12774;SDS011;6451;42.630;23.382;2024-02-26T07:42:14;10.20;;;8.87;;
12774;SDS011;6451;42.630;23.382;2024-02-26T07:44:41;10.33;;;8.90;;
12774;SDS011;6451;42.630;23.382;2024-02-26T07:47:10;10.83;;;8.67;;
12774;SDS011;6451;42.630;23.382;2024-02-26T07:49:37;10.13;;;8.50;;
12774;SDS011;6451;42.630;23.382;2024-02-26T07:52:07;12.40;;;9.13;;
12774;SDS011;6451;42.630;23.382;2024-02-26T07:54:35;8.70;;;7.80;;
12774;SDS011;6451;42.630;23.382;2024-02-26T07:57:02;9.90;;;8.20;;
12774;SDS011;6451;42.630;23.382;2024-02-26T07:59:31;10.10;;;7.97;;
12774;SDS011;6451;42.630;23.382;2024-02-26T08:01:58;8.77;;;6.80;;
12774;SDS011;6451;42.630;23.382;2024-02-26T08:04:30;10.07;;;7.20;;
12774;SDS011;6451;42.630;23.382;2024-02-26T08:06:57;10.37;;;7.30;;
12774;SDS011;6451;42.630;23.382;2024-02-26T08:09:25;9.43;;;7.13;;
12774;SDS011;6451;42.630;23.382;2024-02-26T08:11:52;10.23;;;6.57;;
12774;SDS011;6451;42.630;23.382;2024-02-26T08:14:20;8.03;;;6.70;;
12774;SDS011;6451;42.630;23.382;2024-02-26T08:16:48;12.30;;;6.53;;
12774;SDS011;6451;42.630;23.382;2024-02-26T08:19:16;8.77;;;6.50;;
12774;SDS011;6451;42.630;23.382;2024-02-26T08:25:11;8.30;;;6.67;;
12774;SDS011;6451;42.630;23.382;2024-02-26T08:27:39;8.73;;;6.80;;
12774;SDS011;6451;42.630;23.382;2024-02-26T08:30:09;7.00;;;6.30;;
12774;SDS011;6451;42.630;23.382;2024-02-26T08:32:41;7.50;;;6.53;;
12774;SDS011;6451;42.630;23.382;2024-02-26T08:35:09;11.00;;;7.27;;
12774;SDS011;6451;42.630;23.382;2024-02-26T08:37:37;7.13;;;6.37;;
12774;SDS011;6451;42.630;23.382;2024-02-26T08:40:06;7.00;;;6.00;;
12774;SDS011;6451;42.630;23.382;2024-02-26T08:42:34;6.90;;;5.97;;
12774;SDS011;6451;42.630;23.382;2024-02-26T08:45:02;7.30;;;6.10;;
12774;SDS011;6451;42.630;23.382;2024-02-26T08:47:33;6.70;;;6.07;;
12774;SDS011;6451;42.630;23.382;2024-02-26T08:50:01;7.27;;;6.13;;
12774;SDS011;6451;42.630;23.382;2024-02-26T08:52:30;7.90;;;6.20;;
12774;SDS011;6451;42.630;23.382;2024-02-26T08:54:58;7.37;;;5.90;;
12774;SDS011;6451;42.630;23.382;2024-02-26T08:57:28;9.77;;;6.00;;
12774;SDS011;6451;42.630;23.382;2024-02-26T08:59:57;10.07;;;6.07;;
12774;SDS011;6451;42.630;23.382;2024-02-26T09:02:25;6.77;;;5.93;;
12774;SDS011;6451;42.630;23.382;2024-02-26T09:04:52;7.13;;;5.80;;
12774;SDS011;6451;42.630;23.382;2024-02-26T09:07:20;7.53;;;6.17;;
12774;SDS011;6451;42.630;23.382;2024-02-26T09:09:47;8.77;;;5.80;;
12774;SDS011;6451;42.630;23.382;2024-02-26T09:12:18;7.93;;;5.87;;
12774;SDS011;6451;42.630;23.382;2024-02-26T09:14:46;10.10;;;6.63;;
12774;SDS011;6451;42.630;23.382;2024-02-26T09:17:13;8.73;;;5.93;;
12774;SDS011;6451;42.630;23.382;2024-02-26T09:19:40;8.37;;;5.60;;
12774;SDS011;6451;42.630;23.382;2024-02-26T09:22:09;6.20;;;5.57;;
12774;SDS011;6451;42.630;23.382;2024-02-26T09:24:36;8.03;;;5.50;;
12774;SDS011;6451;42.630;23.382;2024-02-26T09:27:03;8.47;;;5.60;;
12774;SDS011;6451;42.630;23.382;2024-02-26T09:29:32;6.50;;;5.30;;
12774;SDS011;6451;42.630;23.382;2024-02-26T09:32:02;7.13;;;5.20;;
12774;SDS011;6451;42.630;23.382;2024-02-26T09:34:30;8.43;;;5.90;;
12774;SDS011;6451;42.630;23.382;2024-02-26T09:36:58;6.77;;;6.10;;
12774;SDS011;6451;42.630;23.382;2024-02-26T09:39:25;7.23;;;5.93;;
12774;SDS011;6451;42.630;23.382;2024-02-26T09:41:53;8.37;;;5.57;;
12774;SDS011;6451;42.630;23.382;2024-02-26T09:44:24;6.82;;;5.45;;
12774;SDS011;6451;42.630;23.382;2024-02-26T09:46:55;8.52;;;6.05;;
12774;SDS011;6451;42.630;23.382;2024-02-26T09:49:24;9.25;;;6.32;;
12774;SDS011;6451;42.630;23.382;2024-02-26T09:51:51;8.50;;;5.80;;
12774;SDS011;6451;42.630;23.382;2024-02-26T09:54:21;11.00;;;6.57;;
12774;SDS011;6451;42.630;23.382;2024-02-26T09:57:03;7.95;;;6.18;;
12774;SDS011;6451;42.630;23.382;2024-02-26T09:59:33;7.25;;;5.60;;
12774;SDS011;6451;42.630;23.382;2024-02-26T10:02:06;6.57;;;5.20;;
12774;SDS011;6451;42.630;23.382;2024-02-26T10:04:38;6.82;;;5.57;;
12774;SDS011;6451;42.630;23.382;2024-02-26T10:07:09;9.40;;;5.85;;
12774;SDS011;6451;42.630;23.382;2024-02-26T10:09:40;8.70;;;6.07;;
12774;SDS011;6451;42.630;23.382;2024-02-26T10:12:08;6.55;;;5.65;;
12774;SDS011;6451;42.630;23.382;2024-02-26T10:14:37;6.97;;;5.75;;
12774;SDS011;6451;42.630;23.382;2024-02-26T10:17:05;9.13;;;6.03;;
12774;SDS011;6451;42.630;23.382;2024-02-26T10:19:34;6.45;;;5.72;;
12774;SDS011;6451;42.630;23.382;2024-02-26T10:22:07;6.18;;;5.57;;
12774;SDS011;6451;42.630;23.382;2024-02-26T10:24:36;6.72;;;5.55;;
12774;SDS011;6451;42.630;23.382;2024-02-26T10:27:04;6.80;;;6.03;;
12774;SDS011;6451;42.630;23.382;2024-02-26T10:29:32;6.18;;;5.38;;
12774;SDS011;6451;42.630;23.382;2024-02-26T10:32:05;6.72;;;5.43;;
12774;SDS011;6451;42.630;23.382;2024-02-26T10:34:34;7.03;;;6.22;;
12774;SDS011;6451;42.630;23.382;2024-02-26T10:37:07;5.95;;;5.13;;
12774;SDS011;6451;42.630;23.382;2024-02-26T10:39:36;8.00;;;5.65;;
12774;SDS011;6451;42.630;23.382;2024-02-26T10:42:04;5.85;;;5.30;;
12774;SDS011;6451;42.630;23.382;2024-02-26T10:44:35;6.18;;;5.30;;
12774;SDS011;6451;42.630;23.382;2024-02-26T10:47:02;8.20;;;5.50;;
12774;SDS011;6451;42.630;23.382;2024-02-26T10:49:30;6.53;;;5.32;;
12774;SDS011;6451;42.630;23.382;2024-02-26T10:51:59;6.32;;;5.30;;
12774;SDS011;6451;42.630;23.382;2024-02-26T10:54:38;6.75;;;5.50;;
12774;SDS011;6451;42.630;23.382;2024-02-26T10:57:09;5.93;;;5.38;;
12774;SDS011;6451;42.630;23.382;2024-02-26T10:59:37;5.93;;;5.35;;
12774;SDS011;6451;42.630;23.382;2024-02-26T11:02:06;7.60;;;5.60;;
12774;SDS011;6451;42.630;23.382;2024-02-26T11:04:38;5.70;;;5.20;;
12774;SDS011;6451;42.630;23.382;2024-02-26T11:07:08;6.75;;;4.97;;
12774;SDS011;6451;42.630;23.382;2024-02-26T11:09:40;6.50;;;5.40;;
12774;SDS011;6451;42.630;23.382;2024-02-26T11:12:09;7.00;;;5.00;;
12774;SDS011;6451;42.630;23.382;2024-02-26T11:14:38;6.53;;;5.20;;
12774;SDS011;6451;42.630;23.382;2024-02-26T11:17:07;5.20;;;4.60;;
12774;SDS011;6451;42.630;23.382;2024-02-26T11:19:37;7.57;;;5.20;;
12774;SDS011;6451;42.630;23.382;2024-02-26T11:22:08;5.80;;;5.22;;
12774;SDS011;6451;42.630;23.382;2024-02-26T11:24:38;5.45;;;4.95;;
12774;SDS011;6451;42.630;23.382;2024-02-26T11:27:08;6.15;;;4.88;;
12774;SDS011;6451;42.630;23.382;2024-02-26T11:29:43;7.35;;;4.95;;
12774;SDS011;6451;42.630;23.382;2024-02-26T11:32:14;7.60;;;4.80;;
12774;SDS011;6451;42.630;23.382;2024-02-26T11:34:42;5.57;;;4.78;;
12774;SDS011;6451;42.630;23.382;2024-02-26T11:37:10;7.35;;;4.88;;
12774;SDS011;6451;42.630;23.382;2024-02-26T11:39:41;7.40;;;4.90;;
12774;SDS011;6451;42.630;23.382;2024-02-26T11:42:14;6.15;;;4.82;;
12774;SDS011;6451;42.630;23.382;2024-02-26T11:44:45;8.23;;;4.68;;
12774;SDS011;6451;42.630;23.382;2024-02-26T11:53:19;4.88;;;4.38;;
12774;SDS011;6451;42.630;23.382;2024-02-26T11:55:49;5.50;;;4.43;;
12774;SDS011;6451;42.630;23.382;2024-02-26T11:58:58;6.47;;;5.00;;
12774;SDS011;6451;42.630;23.382;2024-02-26T12:01:40;5.03;;;4.50;;
12774;SDS011;6451;42.630;23.382;2024-02-26T12:04:11;5.65;;;4.70;;
12774;SDS011;6451;42.630;23.382;2024-02-26T12:06:47;6.70;;;4.40;;
12774;SDS011;6451;42.630;23.382;2024-02-26T12:09:33;5.50;;;4.10;;
12774;SDS011;6451;42.630;23.382;2024-02-26T12:12:07;5.63;;;4.30;;
12774;SDS011;6451;42.630;23.382;2024-02-26T12:14:37;6.93;;;4.65;;
12774;SDS011;6451;42.630;23.382;2024-02-26T12:17:06;5.18;;;4.28;;
12774;SDS011;6451;42.630;23.382;2024-02-26T12:19:36;6.20;;;4.28;;
12774;SDS011;6451;42.630;23.382;2024-02-26T12:22:06;7.00;;;4.30;;
12774;SDS011;6451;42.630;23.382;2024-02-26T12:24:40;6.63;;;4.32;;
12774;SDS011;6451;42.630;23.382;2024-02-26T12:27:08;9.80;;;4.75;;
12774;SDS011;6451;42.630;23.382;2024-02-26T12:29:38;6.57;;;4.38;;
12774;SDS011;6451;42.630;23.382;2024-02-26T12:32:06;6.55;;;4.35;;
12774;SDS011;6451;42.630;23.382;2024-02-26T12:34:34;5.13;;;4.18;;
12774;SDS011;6451;42.630;23.382;2024-02-26T12:37:01;5.88;;;4.00;;
12774;SDS011;6451;42.630;23.382;2024-02-26T12:39:28;6.53;;;4.20;;
12774;SDS011;6451;42.630;23.382;2024-02-26T12:41:57;5.53;;;3.78;;
12774;SDS011;6451;42.630;23.382;2024-02-26T12:44:30;6.40;;;4.05;;
12774;SDS011;6451;42.630;23.382;2024-02-26T12:47:00;4.85;;;3.85;;
12774;SDS011;6451;42.630;23.382;2024-02-26T12:49:28;5.57;;;4.10;;
12774;SDS011;6451;42.630;23.382;2024-02-26T12:51:55;7.10;;;3.88;;
12774;SDS011;6451;42.630;23.382;2024-02-26T12:54:26;8.10;;;4.00;;
12774;SDS011;6451;42.630;23.382;2024-02-26T12:56:54;7.25;;;4.10;;
12774;SDS011;6451;42.630;23.382;2024-02-26T12:59:26;7.30;;;4.22;;
12774;SDS011;6451;42.630;23.382;2024-02-26T13:01:58;8.02;;;4.50;;
12774;SDS011;6451;42.630;23.382;2024-02-26T13:04:26;6.03;;;3.80;;
12774;SDS011;6451;42.630;23.382;2024-02-26T13:06:56;8.25;;;4.00;;
12774;SDS011;6451;42.630;23.382;2024-02-26T13:09:28;5.80;;;3.88;;
12774;SDS011;6451;42.630;23.382;2024-02-26T13:12:03;5.78;;;3.72;;
12774;SDS011;6451;42.630;23.382;2024-02-26T13:14:30;6.22;;;3.92;;
12774;SDS011;6451;42.630;23.382;2024-02-26T13:17:02;4.95;;;3.78;;
12774;SDS011;6451;42.630;23.382;2024-02-26T13:19:30;6.63;;;4.00;;
12774;SDS011;6451;42.630;23.382;2024-02-26T13:22:02;6.55;;;4.10;;
12774;SDS011;6451;42.630;23.382;2024-02-26T13:24:32;6.95;;;3.90;;
12774;SDS011;6451;42.630;23.382;2024-02-26T13:26:59;5.35;;;3.83;;
12774;SDS011;6451;42.630;23.382;2024-02-26T13:29:31;6.03;;;3.88;;
12774;SDS011;6451;42.630;23.382;2024-02-26T13:31:59;10.27;;;3.65;;
12774;SDS011;6451;42.630;23.382;2024-02-26T13:34:32;8.23;;;3.90;;
12774;SDS011;6451;42.630;23.382;2024-02-26T13:37:02;6.20;;;3.75;;
12774;SDS011;6451;42.630;23.382;2024-02-26T13:39:34;7.88;;;3.90;;
12774;SDS011;6451;42.630;23.382;2024-02-26T13:42:02;4.97;;;3.28;;
12774;SDS011;6451;42.630;23.382;2024-02-26T13:44:29;5.18;;;3.45;;
12774;SDS011;6451;42.630;23.382;2024-02-26T13:46:57;4.93;;;3.78;;
12774;SDS011;6451;42.630;23.382;2024-02-26T13:49:27;6.10;;;3.97;;
12774;SDS011;6451;42.630;23.382;2024-02-26T13:51:55;5.95;;;3.70;;
12774;SDS011;6451;42.630;23.382;2024-02-26T13:54:22;8.52;;;3.97;;
12774;SDS011;6451;42.630;23.382;2024-02-26T13:56:52;6.38;;;3.70;;
12774;SDS011;6451;42.630;23.382;2024-02-26T13:59:25;8.77;;;3.95;;
12774;SDS011;6451;42.630;23.382;2024-02-26T14:01:52;6.78;;;3.90;;
12774;SDS011;6451;42.630;23.382;2024-02-26T14:04:20;6.72;;;4.00;;
12774;SDS011;6451;42.630;23.382;2024-02-26T14:06:50;7.75;;;3.63;;
12774;SDS011;6451;42.630;23.382;2024-02-26T14:09:17;7.75;;;3.78;;
12774;SDS011;6451;42.630;23.382;2024-02-26T14:11:45;4.95;;;3.33;;
12774;SDS011;6451;42.630;23.382;2024-02-26T14:14:14;5.07;;;3.33;;
12774;SDS011;6451;42.630;23.382;2024-02-26T14:16:42;4.70;;;3.33;;
12774;SDS011;6451;42.630;23.382;2024-02-26T14:19:11;6.65;;;3.58;;
12774;SDS011;6451;42.630;23.382;2024-02-26T14:21:39;5.57;;;3.55;;
12774;SDS011;6451;42.630;23.382;2024-02-26T14:24:09;4.25;;;3.30;;
12774;SDS011;6451;42.630;23.382;2024-02-26T14:26:36;6.25;;;4.10;;
12774;SDS011;6451;42.630;23.382;2024-02-26T14:29:04;5.05;;;3.50;;
12774;SDS011;6451;42.630;23.382;2024-02-26T14:31:33;4.53;;;3.20;;
12774;SDS011;6451;42.630;23.382;2024-02-26T14:34:01;6.57;;;3.60;;
12774;SDS011;6451;42.630;23.382;2024-02-26T14:36:28;5.63;;;3.45;;
12774;SDS011;6451;42.630;23.382;2024-02-26T14:38:57;4.82;;;3.30;;
12774;SDS011;6451;42.630;23.382;2024-02-26T14:41:25;3.47;;;3.13;;
12774;SDS011;6451;42.630;23.382;2024-02-26T14:43:54;5.20;;;3.50;;
12774;SDS011;6451;42.630;23.382;2024-02-26T14:46:27;11.75;;;3.70;;
12774;SDS011;6451;42.630;23.382;2024-02-26T14:48:55;5.40;;;3.80;;
12774;SDS011;6451;42.630;23.382;2024-02-26T14:51:24;8.18;;;4.43;;
12774;SDS011;6451;42.630;23.382;2024-02-26T14:53:52;5.63;;;3.97;;
12774;SDS011;6451;42.630;23.382;2024-02-26T14:56:20;4.82;;;3.40;;
12774;SDS011;6451;42.630;23.382;2024-02-26T14:58:48;5.07;;;3.75;;
12774;SDS011;6451;42.630;23.382;2024-02-26T15:01:15;8.52;;;3.60;;